sensor_id;sensor_type;location;lat;lon;timestamp;P1;durP1;ratioP1;P2;durP2;ratioP2
65710;SDS011;52690;54.496;9.030;2023-04-29T00:01:19;13.10;;;7.77;;
65710;SDS011;52690;54.496;9.030;2023-04-29T00:03:19;14.03;;;8.00;;
65710;SDS011;52690;54.496;9.030;2023-04-29T00:05:19;12.90;;;7.53;;
65710;SDS011;52690;54.496;9.030;2023-04-29T00:07:20;10.67;;;7.30;;
65710;SDS011;52690;54.496;9.030;2023-04-29T00:09:21;15.40;;;7.57;;
65710;SDS011;52690;54.496;9.030;2023-04-29T00:11:21;17.80;;;7.90;;
65710;SDS011;52690;54.496;9.030;2023-04-29T00:13:21;12.40;;;7.87;;
65710;SDS011;52690;54.496;9.030;2023-04-29T00:15:21;14.00;;;8.20;;
65710;SDS011;52690;54.496;9.030;2023-04-29T00:17:21;13.70;;;7.80;;
65710;SDS011;52690;54.496;9.030;2023-04-29T00:19:21;15.73;;;8.23;;
65710;SDS011;52690;54.496;9.030;2023-04-29T00:21:22;18.77;;;8.03;;
65710;SDS011;52690;54.496;9.030;2023-04-29T00:23:23;14.10;;;7.77;;
65710;SDS011;52690;54.496;9.030;2023-04-29T00:25:23;14.27;;;7.88;;
65710;SDS011;52690;54.496;9.030;2023-04-29T00:27:23;11.77;;;7.80;;
65710;SDS011;52690;54.496;9.030;2023-04-29T00:29:24;16.47;;;8.00;;
65710;SDS011;52690;54.496;9.030;2023-04-29T00:31:24;13.87;;;8.37;;
65710;SDS011;52690;54.496;9.030;2023-04-29T00:33:24;13.47;;;8.00;;
65710;SDS011;52690;54.496;9.030;2023-04-29T00:35:24;17.23;;;8.23;;
65710;SDS011;52690;54.496;9.030;2023-04-29T00:37:24;18.98;;;8.23;;
65710;SDS011;52690;54.496;9.030;2023-04-29T00:39:26;12.53;;;7.27;;
65710;SDS011;52690;54.496;9.030;2023-04-29T00:41:26;14.68;;;8.38;;
65710;SDS011;52690;54.496;9.030;2023-04-29T00:43:26;14.47;;;7.67;;
65710;SDS011;52690;54.496;9.030;2023-04-29T00:45:26;11.07;;;7.70;;
65710;SDS011;52690;54.496;9.030;2023-04-29T00:47:26;10.37;;;7.63;;
65710;SDS011;52690;54.496;9.030;2023-04-29T00:49:27;15.10;;;8.63;;
65710;SDS011;52690;54.496;9.030;2023-04-29T00:51:27;14.50;;;7.85;;
65710;SDS011;52690;54.496;9.030;2023-04-29T00:53:27;15.53;;;8.83;;
65710;SDS011;52690;54.496;9.030;2023-04-29T00:55:29;18.08;;;9.13;;
65710;SDS011;52690;54.496;9.030;2023-04-29T00:57:30;16.17;;;8.55;;
65710;SDS011;52690;54.496;9.030;2023-04-29T00:59:30;19.35;;;8.60;;
65710;SDS011;52690;54.496;9.030;2023-04-29T01:01:30;15.30;;;9.33;;
65710;SDS011;52690;54.496;9.030;2023-04-29T01:03:31;17.75;;;9.15;;
65710;SDS011;52690;54.496;9.030;2023-04-29T01:05:31;12.50;;;8.77;;
65710;SDS011;52690;54.496;9.030;2023-04-29T01:07:33;19.50;;;8.82;;
65710;SDS011;52690;54.496;9.030;2023-04-29T01:09:41;16.38;;;8.65;;
65710;SDS011;52690;54.496;9.030;2023-04-29T01:11:46;15.43;;;8.65;;
65710;SDS011;52690;54.496;9.030;2023-04-29T01:13:48;16.13;;;8.88;;
65710;SDS011;52690;54.496;9.030;2023-04-29T01:15:53;13.35;;;8.38;;
65710;SDS011;52690;54.496;9.030;2023-04-29T01:17:54;14.38;;;8.70;;
65710;SDS011;52690;54.496;9.030;2023-04-29T01:19:55;18.85;;;8.88;;
65710;SDS011;52690;54.496;9.030;2023-04-29T01:21:56;15.43;;;8.82;;
65710;SDS011;52690;54.496;9.030;2023-04-29T01:23:57;15.27;;;8.33;;
65710;SDS011;52690;54.496;9.030;2023-04-29T01:25:58;16.10;;;8.65;;
65710;SDS011;52690;54.496;9.030;2023-04-29T01:28:01;17.42;;;9.73;;
65710;SDS011;52690;54.496;9.030;2023-04-29T01:30:06;13.77;;;8.55;;
65710;SDS011;52690;54.496;9.030;2023-04-29T01:32:11;16.35;;;9.35;;
65710;SDS011;52690;54.496;9.030;2023-04-29T01:34:13;14.25;;;8.70;;
65710;SDS011;52690;54.496;9.030;2023-04-29T01:36:18;16.02;;;9.23;;
65710;SDS011;52690;54.496;9.030;2023-04-29T01:38:22;13.40;;;8.60;;
65710;SDS011;52690;54.496;9.030;2023-04-29T01:40:29;15.93;;;8.93;;
65710;SDS011;52690;54.496;9.030;2023-04-29T01:42:33;15.10;;;9.35;;
65710;SDS011;52690;54.496;9.030;2023-04-29T01:44:35;15.05;;;8.95;;
65710;SDS011;52690;54.496;9.030;2023-04-29T01:46:35;13.52;;;8.52;;
65710;SDS011;52690;54.496;9.030;2023-04-29T01:48:36;11.82;;;9.02;;
65710;SDS011;52690;54.496;9.030;2023-04-29T01:50:36;15.52;;;8.85;;
65710;SDS011;52690;54.496;9.030;2023-04-29T01:52:37;15.50;;;8.60;;
65710;SDS011;52690;54.496;9.030;2023-04-29T01:54:37;14.48;;;8.88;;
65710;SDS011;52690;54.496;9.030;2023-04-29T01:56:38;16.17;;;8.27;;
65710;SDS011;52690;54.496;9.030;2023-04-29T01:58:38;15.60;;;9.15;;
65710;SDS011;52690;54.496;9.030;2023-04-29T02:00:39;12.70;;;8.53;;
65710;SDS011;52690;54.496;9.030;2023-04-29T02:02:39;16.63;;;9.33;;
65710;SDS011;52690;54.496;9.030;2023-04-29T02:04:39;18.17;;;9.68;;
65710;SDS011;52690;54.496;9.030;2023-04-29T02:06:39;17.03;;;9.47;;
65710;SDS011;52690;54.496;9.030;2023-04-29T02:08:39;16.00;;;9.20;;
65710;SDS011;52690;54.496;9.030;2023-04-29T02:10:39;13.40;;;8.87;;
65710;SDS011;52690;54.496;9.030;2023-04-29T02:12:41;14.47;;;9.07;;
65710;SDS011;52690;54.496;9.030;2023-04-29T02:14:41;16.02;;;9.00;;
65710;SDS011;52690;54.496;9.030;2023-04-29T02:16:42;18.50;;;9.77;;
65710;SDS011;52690;54.496;9.030;2023-04-29T02:18:43;13.63;;;8.60;;
65710;SDS011;52690;54.496;9.030;2023-04-29T02:20:43;15.03;;;8.80;;
65710;SDS011;52690;54.496;9.030;2023-04-29T02:22:43;16.42;;;8.73;;
65710;SDS011;52690;54.496;9.030;2023-04-29T02:24:43;17.30;;;8.97;;
65710;SDS011;52690;54.496;9.030;2023-04-29T02:26:43;15.47;;;9.10;;
65710;SDS011;52690;54.496;9.030;2023-04-29T02:28:45;15.53;;;8.83;;
65710;SDS011;52690;54.496;9.030;2023-04-29T02:30:45;15.63;;;9.20;;
65710;SDS011;52690;54.496;9.030;2023-04-29T02:32:45;12.83;;;8.63;;
65710;SDS011;52690;54.496;9.030;2023-04-29T02:34:45;12.50;;;9.40;;
65710;SDS011;52690;54.496;9.030;2023-04-29T02:36:45;14.70;;;8.87;;
65710;SDS011;52690;54.496;9.030;2023-04-29T02:38:46;16.30;;;9.33;;
65710;SDS011;52690;54.496;9.030;2023-04-29T02:40:46;12.60;;;8.90;;
65710;SDS011;52690;54.496;9.030;2023-04-29T02:42:46;14.57;;;8.50;;
65710;SDS011;52690;54.496;9.030;2023-04-29T02:44:47;15.50;;;8.70;;
65710;SDS011;52690;54.496;9.030;2023-04-29T02:46:48;14.98;;;8.73;;
65710;SDS011;52690;54.496;9.030;2023-04-29T02:48:48;17.60;;;8.97;;
65710;SDS011;52690;54.496;9.030;2023-04-29T02:50:48;15.47;;;8.93;;
65710;SDS011;52690;54.496;9.030;2023-04-29T02:52:48;16.20;;;9.53;;
65710;SDS011;52690;54.496;9.030;2023-04-29T02:54:48;19.60;;;8.97;;
65710;SDS011;52690;54.496;9.030;2023-04-29T02:56:48;15.17;;;9.43;;
65710;SDS011;52690;54.496;9.030;2023-04-29T02:58:49;14.43;;;9.35;;
65710;SDS011;52690;54.496;9.030;2023-04-29T03:00:50;14.40;;;8.77;;
65710;SDS011;52690;54.496;9.030;2023-04-29T03:02:50;15.15;;;9.75;;
65710;SDS011;52690;54.496;9.030;2023-04-29T03:04:50;15.83;;;9.90;;
65710;SDS011;52690;54.496;9.030;2023-04-29T03:06:50;13.20;;;9.23;;
65710;SDS011;52690;54.496;9.030;2023-04-29T03:08:51;17.85;;;10.85;;
65710;SDS011;52690;54.496;9.030;2023-04-29T03:10:51;16.03;;;9.90;;
65710;SDS011;52690;54.496;9.030;2023-04-29T03:12:51;16.13;;;8.57;;
65710;SDS011;52690;54.496;9.030;2023-04-29T03:14:51;15.13;;;9.17;;
65710;SDS011;52690;54.496;9.030;2023-04-29T03:16:53;14.63;;;9.70;;
65710;SDS011;52690;54.496;9.030;2023-04-29T03:18:53;17.52;;;9.98;;
65710;SDS011;52690;54.496;9.030;2023-04-29T03:20:53;13.07;;;8.90;;
65710;SDS011;52690;54.496;9.030;2023-04-29T03:22:53;14.23;;;9.23;;
65710;SDS011;52690;54.496;9.030;2023-04-29T03:24:53;17.57;;;9.37;;
65710;SDS011;52690;54.496;9.030;2023-04-29T03:26:54;15.17;;;8.73;;
65710;SDS011;52690;54.496;9.030;2023-04-29T03:28:54;13.17;;;9.37;;
65710;SDS011;52690;54.496;9.030;2023-04-29T03:30:54;13.00;;;9.73;;
65710;SDS011;52690;54.496;9.030;2023-04-29T03:32:55;18.17;;;9.70;;
65710;SDS011;52690;54.496;9.030;2023-04-29T03:34:55;12.20;;;8.88;;
65710;SDS011;52690;54.496;9.030;2023-04-29T03:36:56;14.47;;;9.63;;
65710;SDS011;52690;54.496;9.030;2023-04-29T03:38:56;14.87;;;9.57;;
65710;SDS011;52690;54.496;9.030;2023-04-29T03:40:56;14.43;;;9.50;;
65710;SDS011;52690;54.496;9.030;2023-04-29T03:42:56;16.97;;;10.07;;
65710;SDS011;52690;54.496;9.030;2023-04-29T03:44:56;17.50;;;9.73;;
65710;SDS011;52690;54.496;9.030;2023-04-29T03:46:56;16.63;;;9.47;;
65710;SDS011;52690;54.496;9.030;2023-04-29T03:48:58;13.80;;;10.00;;
65710;SDS011;52690;54.496;9.030;2023-04-29T03:50:58;18.73;;;10.02;;
65710;SDS011;52690;54.496;9.030;2023-04-29T03:52:58;16.27;;;9.97;;
65710;SDS011;52690;54.496;9.030;2023-04-29T03:54:59;17.27;;;9.70;;
65710;SDS011;52690;54.496;9.030;2023-04-29T03:56:59;15.50;;;8.87;;
65710;SDS011;52690;54.496;9.030;2023-04-29T03:58:59;17.10;;;9.93;;
65710;SDS011;52690;54.496;9.030;2023-04-29T04:00:59;16.27;;;10.03;;
65710;SDS011;52690;54.496;9.030;2023-04-29T04:02:59;14.73;;;8.95;;
65710;SDS011;52690;54.496;9.030;2023-04-29T04:05:01;13.77;;;9.97;;
65710;SDS011;52690;54.496;9.030;2023-04-29T04:07:01;19.60;;;9.43;;
65710;SDS011;52690;54.496;9.030;2023-04-29T04:09:01;12.80;;;9.07;;
65710;SDS011;52690;54.496;9.030;2023-04-29T04:11:01;14.77;;;9.67;;
65710;SDS011;52690;54.496;9.030;2023-04-29T04:13:01;14.70;;;9.07;;
65710;SDS011;52690;54.496;9.030;2023-04-29T04:15:02;17.33;;;9.90;;
65710;SDS011;52690;54.496;9.030;2023-04-29T04:17:02;20.08;;;9.48;;
65710;SDS011;52690;54.496;9.030;2023-04-29T04:19:02;12.90;;;8.80;;
65710;SDS011;52690;54.496;9.030;2023-04-29T04:21:07;16.67;;;9.60;;
65710;SDS011;52690;54.496;9.030;2023-04-29T04:23:07;17.05;;;8.65;;
65710;SDS011;52690;54.496;9.030;2023-04-29T04:25:08;12.17;;;8.37;;
65710;SDS011;52690;54.496;9.030;2023-04-29T04:27:08;17.02;;;9.00;;
65710;SDS011;52690;54.496;9.030;2023-04-29T04:29:08;16.67;;;8.30;;
65710;SDS011;52690;54.496;9.030;2023-04-29T04:31:08;14.50;;;8.03;;
65710;SDS011;52690;54.496;9.030;2023-04-29T04:33:09;15.77;;;8.30;;
65710;SDS011;52690;54.496;9.030;2023-04-29T04:35:09;16.47;;;9.27;;
65710;SDS011;52690;54.496;9.030;2023-04-29T04:37:10;12.63;;;8.60;;
65710;SDS011;52690;54.496;9.030;2023-04-29T04:39:10;11.25;;;8.13;;
65710;SDS011;52690;54.496;9.030;2023-04-29T04:41:10;13.73;;;8.20;;
65710;SDS011;52690;54.496;9.030;2023-04-29T04:43:11;11.57;;;7.43;;
65710;SDS011;52690;54.496;9.030;2023-04-29T04:45:11;11.13;;;7.77;;
65710;SDS011;52690;54.496;9.030;2023-04-29T04:47:11;14.50;;;8.40;;
65710;SDS011;52690;54.496;9.030;2023-04-29T04:49:11;11.57;;;7.87;;
65710;SDS011;52690;54.496;9.030;2023-04-29T04:51:12;12.10;;;7.60;;
65710;SDS011;52690;54.496;9.030;2023-04-29T04:53:13;13.13;;;7.55;;
65710;SDS011;52690;54.496;9.030;2023-04-29T04:55:13;16.67;;;8.13;;
65710;SDS011;52690;54.496;9.030;2023-04-29T04:57:14;14.03;;;7.73;;
65710;SDS011;52690;54.496;9.030;2023-04-29T04:59:14;11.53;;;7.93;;
65710;SDS011;52690;54.496;9.030;2023-04-29T05:01:14;11.83;;;7.27;;
65710;SDS011;52690;54.496;9.030;2023-04-29T05:03:14;11.60;;;7.03;;
65710;SDS011;52690;54.496;9.030;2023-04-29T05:05:14;13.60;;;8.03;;
65710;SDS011;52690;54.496;9.030;2023-04-29T05:07:15;10.43;;;7.22;;
65710;SDS011;52690;54.496;9.030;2023-04-29T05:09:16;10.33;;;7.17;;
65710;SDS011;52690;54.496;9.030;2023-04-29T05:11:16;11.65;;;6.82;;
65710;SDS011;52690;54.496;9.030;2023-04-29T05:13:16;10.38;;;7.20;;
65710;SDS011;52690;54.496;9.030;2023-04-29T05:15:17;10.53;;;6.07;;
65710;SDS011;52690;54.496;9.030;2023-04-29T05:17:17;9.98;;;6.65;;
65710;SDS011;52690;54.496;9.030;2023-04-29T05:19:17;9.17;;;6.37;;
65710;SDS011;52690;54.496;9.030;2023-04-29T05:21:17;13.93;;;7.10;;
65710;SDS011;52690;54.496;9.030;2023-04-29T05:23:17;13.77;;;6.90;;
65710;SDS011;52690;54.496;9.030;2023-04-29T05:25:19;11.00;;;6.87;;
65710;SDS011;52690;54.496;9.030;2023-04-29T05:27:19;10.57;;;6.53;;
65710;SDS011;52690;54.496;9.030;2023-04-29T05:29:19;11.83;;;7.10;;
65710;SDS011;52690;54.496;9.030;2023-04-29T05:31:19;8.43;;;6.33;;
65710;SDS011;52690;54.496;9.030;2023-04-29T05:33:20;12.90;;;7.28;;
65710;SDS011;52690;54.496;9.030;2023-04-29T05:35:20;10.27;;;6.43;;
65710;SDS011;52690;54.496;9.030;2023-04-29T05:37:20;10.20;;;6.10;;
65710;SDS011;52690;54.496;9.030;2023-04-29T05:39:20;11.17;;;6.80;;
65710;SDS011;52690;54.496;9.030;2023-04-29T05:41:22;9.37;;;5.73;;
65710;SDS011;52690;54.496;9.030;2023-04-29T05:43:22;8.65;;;5.65;;
65710;SDS011;52690;54.496;9.030;2023-04-29T05:45:22;11.85;;;6.60;;
65710;SDS011;52690;54.496;9.030;2023-04-29T05:47:22;10.87;;;7.13;;
65710;SDS011;52690;54.496;9.030;2023-04-29T05:49:22;8.33;;;6.17;;
65710;SDS011;52690;54.496;9.030;2023-04-29T05:51:23;11.77;;;6.93;;
65710;SDS011;52690;54.496;9.030;2023-04-29T05:53:23;10.80;;;6.20;;
65710;SDS011;52690;54.496;9.030;2023-04-29T05:55:23;12.60;;;6.53;;
65710;SDS011;52690;54.496;9.030;2023-04-29T05:57:24;12.10;;;6.37;;
65710;SDS011;52690;54.496;9.030;2023-04-29T05:59:25;12.77;;;6.68;;
65710;SDS011;52690;54.496;9.030;2023-04-29T06:01:25;9.30;;;6.03;;
65710;SDS011;52690;54.496;9.030;2023-04-29T06:03:25;10.47;;;6.27;;
65710;SDS011;52690;54.496;9.030;2023-04-29T06:05:25;10.30;;;5.90;;
65710;SDS011;52690;54.496;9.030;2023-04-29T06:07:25;8.93;;;5.83;;
65710;SDS011;52690;54.496;9.030;2023-04-29T06:09:26;13.13;;;6.63;;
65710;SDS011;52690;54.496;9.030;2023-04-29T06:11:26;9.90;;;6.27;;
65710;SDS011;52690;54.496;9.030;2023-04-29T06:13:27;8.80;;;6.20;;
65710;SDS011;52690;54.496;9.030;2023-04-29T06:15:27;11.52;;;6.00;;
65710;SDS011;52690;54.496;9.030;2023-04-29T06:17:28;8.57;;;6.13;;
65710;SDS011;52690;54.496;9.030;2023-04-29T06:19:28;9.33;;;6.00;;
65710;SDS011;52690;54.496;9.030;2023-04-29T06:21:28;13.00;;;5.85;;
65710;SDS011;52690;54.496;9.030;2023-04-29T06:23:28;9.07;;;5.40;;
65710;SDS011;52690;54.496;9.030;2023-04-29T06:25:28;8.73;;;5.33;;
65710;SDS011;52690;54.496;9.030;2023-04-29T06:27:28;8.37;;;5.23;;
65710;SDS011;52690;54.496;9.030;2023-04-29T06:29:30;6.37;;;5.50;;
65710;SDS011;52690;54.496;9.030;2023-04-29T06:31:30;9.63;;;5.47;;
65710;SDS011;52690;54.496;9.030;2023-04-29T06:33:31;8.43;;;5.40;;
65710;SDS011;52690;54.496;9.030;2023-04-29T06:35:31;6.15;;;5.55;;
65710;SDS011;52690;54.496;9.030;2023-04-29T06:37:31;12.73;;;6.13;;
65710;SDS011;52690;54.496;9.030;2023-04-29T06:39:31;8.47;;;5.43;;
65710;SDS011;52690;54.496;9.030;2023-04-29T06:41:31;13.53;;;6.17;;
65710;SDS011;52690;54.496;9.030;2023-04-29T06:43:32;15.37;;;6.20;;
65710;SDS011;52690;54.496;9.030;2023-04-29T06:45:33;8.00;;;5.80;;
65710;SDS011;52690;54.496;9.030;2023-04-29T06:47:33;7.88;;;5.53;;
65710;SDS011;52690;54.496;9.030;2023-04-29T06:49:33;6.23;;;5.43;;
65710;SDS011;52690;54.496;9.030;2023-04-29T06:51:34;9.43;;;5.17;;
65710;SDS011;52690;54.496;9.030;2023-04-29T06:53:34;11.90;;;5.20;;
65710;SDS011;52690;54.496;9.030;2023-04-29T06:55:34;12.93;;;6.07;;
65710;SDS011;52690;54.496;9.030;2023-04-29T06:57:34;10.20;;;5.83;;
65710;SDS011;52690;54.496;9.030;2023-04-29T06:59:34;8.17;;;5.53;;
65710;SDS011;52690;54.496;9.030;2023-04-29T07:01:36;6.17;;;5.23;;
65710;SDS011;52690;54.496;9.030;2023-04-29T07:03:36;6.82;;;5.32;;
65710;SDS011;52690;54.496;9.030;2023-04-29T07:05:36;9.87;;;5.50;;
65710;SDS011;52690;54.496;9.030;2023-04-29T07:07:36;11.63;;;6.00;;
65710;SDS011;52690;54.496;9.030;2023-04-29T07:09:37;8.47;;;5.70;;
65710;SDS011;52690;54.496;9.030;2023-04-29T07:11:37;10.70;;;6.07;;
65710;SDS011;52690;54.496;9.030;2023-04-29T07:13:37;8.37;;;5.50;;
65710;SDS011;52690;54.496;9.030;2023-04-29T07:15:37;8.83;;;6.17;;
65710;SDS011;52690;54.496;9.030;2023-04-29T07:17:39;11.97;;;6.93;;
65710;SDS011;52690;54.496;9.030;2023-04-29T07:19:39;10.55;;;6.15;;
65710;SDS011;52690;54.496;9.030;2023-04-29T07:21:39;10.90;;;5.80;;
65710;SDS011;52690;54.496;9.030;2023-04-29T07:23:39;11.33;;;6.23;;
65710;SDS011;52690;54.496;9.030;2023-04-29T07:25:39;16.57;;;6.77;;
65710;SDS011;52690;54.496;9.030;2023-04-29T07:27:39;10.27;;;6.20;;
65710;SDS011;52690;54.496;9.030;2023-04-29T07:29:39;11.53;;;5.97;;
65710;SDS011;52690;54.496;9.030;2023-04-29T07:31:40;11.07;;;5.40;;
65710;SDS011;52690;54.496;9.030;2023-04-29T07:33:41;8.13;;;5.40;;
65710;SDS011;52690;54.496;9.030;2023-04-29T07:35:43;10.75;;;5.75;;
65710;SDS011;52690;54.496;9.030;2023-04-29T07:37:44;9.77;;;5.60;;
65710;SDS011;52690;54.496;9.030;2023-04-29T07:39:45;12.60;;;5.53;;
65710;SDS011;52690;54.496;9.030;2023-04-29T07:41:45;10.13;;;5.47;;
65710;SDS011;52690;54.496;9.030;2023-04-29T07:43:45;9.33;;;5.80;;
65710;SDS011;52690;54.496;9.030;2023-04-29T07:45:45;11.23;;;5.87;;
65710;SDS011;52690;54.496;9.030;2023-04-29T07:47:45;9.03;;;5.50;;
65710;SDS011;52690;54.496;9.030;2023-04-29T07:49:47;11.60;;;6.00;;
65710;SDS011;52690;54.496;9.030;2023-04-29T07:51:47;7.82;;;5.43;;
65710;SDS011;52690;54.496;9.030;2023-04-29T07:53:47;8.57;;;5.13;;
65710;SDS011;52690;54.496;9.030;2023-04-29T07:55:47;8.93;;;5.70;;
65710;SDS011;52690;54.496;9.030;2023-04-29T07:57:47;8.07;;;5.33;;
65710;SDS011;52690;54.496;9.030;2023-04-29T07:59:49;12.80;;;5.10;;
65710;SDS011;52690;54.496;9.030;2023-04-29T08:01:50;8.55;;;4.97;;
65710;SDS011;52690;54.496;9.030;2023-04-29T08:03:50;8.00;;;5.20;;
65710;SDS011;52690;54.496;9.030;2023-04-29T08:05:51;9.23;;;4.80;;
65710;SDS011;52690;54.496;9.030;2023-04-29T08:07:51;7.93;;;4.50;;
65710;SDS011;52690;54.496;9.030;2023-04-29T08:09:52;9.00;;;5.07;;
65710;SDS011;52690;54.496;9.030;2023-04-29T08:11:52;9.27;;;4.87;;
65710;SDS011;52690;54.496;9.030;2023-04-29T08:13:52;7.77;;;4.23;;
65710;SDS011;52690;54.496;9.030;2023-04-29T08:15:52;8.20;;;4.38;;
65710;SDS011;52690;54.496;9.030;2023-04-29T08:17:52;6.40;;;4.17;;
65710;SDS011;52690;54.496;9.030;2023-04-29T08:19:53;7.67;;;4.20;;
65710;SDS011;52690;54.496;9.030;2023-04-29T08:21:54;7.37;;;4.53;;
65710;SDS011;52690;54.496;9.030;2023-04-29T08:23:54;10.75;;;4.50;;
65710;SDS011;52690;54.496;9.030;2023-04-29T08:25:54;5.97;;;4.03;;
65710;SDS011;52690;54.496;9.030;2023-04-29T08:27:55;10.20;;;4.10;;
65710;SDS011;52690;54.496;9.030;2023-04-29T08:29:55;8.27;;;4.20;;
65710;SDS011;52690;54.496;9.030;2023-04-29T08:31:55;4.00;;;3.60;;
65710;SDS011;52690;54.496;9.030;2023-04-29T08:33:55;6.10;;;3.47;;
65710;SDS011;52690;54.496;9.030;2023-04-29T08:35:58;3.97;;;3.40;;
65710;SDS011;52690;54.496;9.030;2023-04-29T08:38:00;6.78;;;3.88;;
65710;SDS011;52690;54.496;9.030;2023-04-29T08:40:00;4.32;;;3.10;;
65710;SDS011;52690;54.496;9.030;2023-04-29T08:42:06;4.80;;;3.00;;
65710;SDS011;52690;54.496;9.030;2023-04-29T08:44:06;7.03;;;3.08;;
65710;SDS011;52690;54.496;9.030;2023-04-29T08:46:06;6.97;;;3.50;;
65710;SDS011;52690;54.496;9.030;2023-04-29T08:48:07;9.98;;;3.78;;
65710;SDS011;52690;54.496;9.030;2023-04-29T08:50:07;7.40;;;3.57;;
65710;SDS011;52690;54.496;9.030;2023-04-29T08:52:08;4.47;;;2.90;;
65710;SDS011;52690;54.496;9.030;2023-04-29T08:54:09;5.93;;;3.33;;
65710;SDS011;52690;54.496;9.030;2023-04-29T08:56:11;7.78;;;3.58;;
65710;SDS011;52690;54.496;9.030;2023-04-29T08:58:13;6.55;;;3.15;;
65710;SDS011;52690;54.496;9.030;2023-04-29T09:00:13;6.18;;;2.88;;
65710;SDS011;52690;54.496;9.030;2023-04-29T09:02:15;6.15;;;3.10;;
65710;SDS011;52690;54.496;9.030;2023-04-29T09:06:34;10.55;;;2.90;;
65710;SDS011;52690;54.496;9.030;2023-04-29T09:08:34;6.87;;;3.60;;
65710;SDS011;52690;54.496;9.030;2023-04-29T09:10:36;4.47;;;2.40;;
65710;SDS011;52690;54.496;9.030;2023-04-29T09:12:37;6.38;;;3.13;;
65710;SDS011;52690;54.496;9.030;2023-04-29T09:14:37;7.10;;;3.30;;
65710;SDS011;52690;54.496;9.030;2023-04-29T09:16:38;5.63;;;2.37;;
65710;SDS011;52690;54.496;9.030;2023-04-29T09:18:41;6.57;;;2.73;;
65710;SDS011;52690;54.496;9.030;2023-04-29T09:20:41;3.95;;;2.28;;
65710;SDS011;52690;54.496;9.030;2023-04-29T09:22:46;5.17;;;2.17;;
65710;SDS011;52690;54.496;9.030;2023-04-29T09:24:46;3.97;;;2.30;;
65710;SDS011;52690;54.496;9.030;2023-04-29T09:26:47;9.70;;;2.80;;
65710;SDS011;52690;54.496;9.030;2023-04-29T09:28:49;4.13;;;2.17;;
65710;SDS011;52690;54.496;9.030;2023-04-29T09:31:04;5.45;;;2.40;;
65710;SDS011;52690;54.496;9.030;2023-04-29T09:33:05;7.13;;;2.43;;
65710;SDS011;52690;54.496;9.030;2023-04-29T09:35:20;4.30;;;2.25;;
65710;SDS011;52690;54.496;9.030;2023-04-29T09:37:24;5.90;;;2.58;;
65710;SDS011;52690;54.496;9.030;2023-04-29T09:39:24;7.22;;;3.00;;
65710;SDS011;52690;54.496;9.030;2023-04-29T09:41:24;6.47;;;2.80;;
65710;SDS011;52690;54.496;9.030;2023-04-29T09:43:26;7.80;;;2.73;;
65710;SDS011;52690;54.496;9.030;2023-04-29T09:45:33;7.32;;;2.75;;
65710;SDS011;52690;54.496;9.030;2023-04-29T09:47:33;4.30;;;2.25;;
65710;SDS011;52690;54.496;9.030;2023-04-29T09:49:34;4.07;;;2.50;;
65710;SDS011;52690;54.496;9.030;2023-04-29T09:51:34;6.97;;;2.28;;
65710;SDS011;52690;54.496;9.030;2023-04-29T09:53:50;4.63;;;1.80;;
65710;SDS011;52690;54.496;9.030;2023-04-29T09:56:00;2.30;;;1.47;;
65710;SDS011;52690;54.496;9.030;2023-04-29T09:58:00;5.53;;;2.00;;
65710;SDS011;52690;54.496;9.030;2023-04-29T10:00:02;4.57;;;2.13;;
65710;SDS011;52690;54.496;9.030;2023-04-29T10:02:06;6.97;;;1.60;;
65710;SDS011;52690;54.496;9.030;2023-04-29T10:04:06;3.97;;;1.60;;
65710;SDS011;52690;54.496;9.030;2023-04-29T10:06:07;2.22;;;1.60;;
65710;SDS011;52690;54.496;9.030;2023-04-29T10:08:07;3.87;;;1.50;;
65710;SDS011;52690;54.496;9.030;2023-04-29T10:10:08;2.97;;;1.50;;
65710;SDS011;52690;54.496;9.030;2023-04-29T10:12:09;3.13;;;1.45;;
65710;SDS011;52690;54.496;9.030;2023-04-29T10:14:10;4.30;;;1.50;;
65710;SDS011;52690;54.496;9.030;2023-04-29T10:16:18;2.28;;;1.52;;
65710;SDS011;52690;54.496;9.030;2023-04-29T10:18:21;5.10;;;1.50;;
65710;SDS011;52690;54.496;9.030;2023-04-29T10:20:25;4.75;;;1.42;;
65710;SDS011;52690;54.496;9.030;2023-04-29T10:22:26;2.57;;;1.30;;
65710;SDS011;52690;54.496;9.030;2023-04-29T10:24:28;7.43;;;1.33;;
65710;SDS011;52690;54.496;9.030;2023-04-29T10:26:28;2.73;;;1.50;;
65710;SDS011;52690;54.496;9.030;2023-04-29T10:28:29;2.35;;;1.23;;
65710;SDS011;52690;54.496;9.030;2023-04-29T10:30:30;2.33;;;1.23;;
65710;SDS011;52690;54.496;9.030;2023-04-29T10:32:32;3.05;;;1.35;;
65710;SDS011;52690;54.496;9.030;2023-04-29T10:34:33;3.55;;;1.40;;
65710;SDS011;52690;54.496;9.030;2023-04-29T10:36:35;5.30;;;1.42;;
65710;SDS011;52690;54.496;9.030;2023-04-29T10:38:38;2.75;;;1.23;;
65710;SDS011;52690;54.496;9.030;2023-04-29T10:40:40;2.33;;;1.30;;
65710;SDS011;52690;54.496;9.030;2023-04-29T10:42:42;2.10;;;1.35;;
65710;SDS011;52690;54.496;9.030;2023-04-29T10:49:18;3.92;;;1.48;;
65710;SDS011;52690;54.496;9.030;2023-04-29T10:51:30;2.72;;;1.40;;
65710;SDS011;52690;54.496;9.030;2023-04-29T10:53:30;3.15;;;1.40;;
65710;SDS011;52690;54.496;9.030;2023-04-29T10:55:31;2.90;;;1.50;;
65710;SDS011;52690;54.496;9.030;2023-04-29T10:57:34;2.95;;;1.40;;
65710;SDS011;52690;54.496;9.030;2023-04-29T10:59:43;2.47;;;1.30;;
65710;SDS011;52690;54.496;9.030;2023-04-29T11:01:47;2.67;;;1.70;;
65710;SDS011;52690;54.496;9.030;2023-04-29T11:03:52;2.72;;;1.33;;
65710;SDS011;52690;54.496;9.030;2023-04-29T11:06:02;5.45;;;1.77;;
65710;SDS011;52690;54.496;9.030;2023-04-29T11:08:09;5.15;;;1.42;;
65710;SDS011;52690;54.496;9.030;2023-04-29T11:10:10;2.92;;;1.40;;
65710;SDS011;52690;54.496;9.030;2023-04-29T11:12:11;2.83;;;1.40;;
65710;SDS011;52690;54.496;9.030;2023-04-29T11:14:12;4.57;;;1.50;;
65710;SDS011;52690;54.496;9.030;2023-04-29T11:16:12;5.30;;;1.75;;
65710;SDS011;52690;54.496;9.030;2023-04-29T11:18:12;3.67;;;1.30;;
65710;SDS011;52690;54.496;9.030;2023-04-29T11:20:13;8.37;;;1.63;;
65710;SDS011;52690;54.496;9.030;2023-04-29T11:22:23;2.73;;;1.30;;
65710;SDS011;52690;54.496;9.030;2023-04-29T11:24:23;2.53;;;1.67;;
65710;SDS011;52690;54.496;9.030;2023-04-29T11:26:24;3.53;;;1.70;;
65710;SDS011;52690;54.496;9.030;2023-04-29T11:28:24;3.53;;;1.70;;
65710;SDS011;52690;54.496;9.030;2023-04-29T11:30:26;3.05;;;1.67;;
65710;SDS011;52690;54.496;9.030;2023-04-29T11:32:28;3.03;;;1.60;;
65710;SDS011;52690;54.496;9.030;2023-04-29T11:34:28;3.88;;;1.50;;
65710;SDS011;52690;54.496;9.030;2023-04-29T11:36:28;3.70;;;1.93;;
65710;SDS011;52690;54.496;9.030;2023-04-29T11:38:31;4.43;;;1.80;;
65710;SDS011;52690;54.496;9.030;2023-04-29T11:40:32;5.10;;;1.55;;
65710;SDS011;52690;54.496;9.030;2023-04-29T11:42:33;4.13;;;1.85;;
65710;SDS011;52690;54.496;9.030;2023-04-29T11:44:33;8.10;;;2.50;;
65710;SDS011;52690;54.496;9.030;2023-04-29T11:46:33;3.58;;;1.90;;
65710;SDS011;52690;54.496;9.030;2023-04-29T11:48:33;8.97;;;2.53;;
65710;SDS011;52690;54.496;9.030;2023-04-29T11:50:34;4.13;;;1.70;;
65710;SDS011;52690;54.496;9.030;2023-04-29T11:52:34;5.57;;;1.90;;
65710;SDS011;52690;54.496;9.030;2023-04-29T11:54:36;5.57;;;1.80;;
65710;SDS011;52690;54.496;9.030;2023-04-29T11:56:36;5.53;;;2.20;;
65710;SDS011;52690;54.496;9.030;2023-04-29T11:58:37;3.80;;;1.98;;
65710;SDS011;52690;54.496;9.030;2023-04-29T12:00:37;4.50;;;1.83;;
65710;SDS011;52690;54.496;9.030;2023-04-29T12:02:37;6.10;;;2.03;;
65710;SDS011;52690;54.496;9.030;2023-04-29T12:04:43;4.00;;;2.00;;
65710;SDS011;52690;54.496;9.030;2023-04-29T12:06:43;7.18;;;1.83;;
65710;SDS011;52690;54.496;9.030;2023-04-29T12:08:45;4.57;;;1.85;;
65710;SDS011;52690;54.496;9.030;2023-04-29T12:10:47;5.43;;;1.58;;